createdAt,value
2018-04-30T00:01:52.629Z,18.60
2018-04-30T00:04:20.041Z,18.50
2018-04-30T00:06:48.224Z,18.20
2018-04-30T00:09:15.646Z,18.10
2018-04-30T00:11:43.057Z,18.00
2018-04-30T00:14:10.565Z,17.90
2018-04-30T00:16:37.980Z,17.80
2018-04-30T00:19:05.393Z,17.70
2018-04-30T00:21:32.869Z,17.60
2018-04-30T00:24:00.281Z,17.50
2018-04-30T00:26:27.705Z,17.30
2018-04-30T00:28:55.119Z,17.30
2018-04-30T00:31:22.532Z,17.30
2018-04-30T00:33:50.709Z,17.10
2018-04-30T00:36:18.921Z,17.10
2018-04-30T00:38:46.396Z,17.10
2018-04-30T00:41:13.809Z,17.10
2018-04-30T00:43:41.225Z,17.00
2018-04-30T00:46:08.697Z,17.00
2018-04-30T00:48:36.104Z,16.90
2018-04-30T00:51:03.546Z,16.90
2018-04-30T00:53:31.010Z,16.90
2018-04-30T00:55:58.483Z,16.90
2018-04-30T00:58:25.953Z,16.90
2018-04-30T01:00:53.361Z,16.90
2018-04-30T01:03:20.800Z,16.90
2018-04-30T01:05:48.211Z,16.90
2018-04-30T01:08:15.729Z,16.80
2018-04-30T01:10:43.142Z,16.70
2018-04-30T01:13:10.550Z,16.70
2018-04-30T01:15:38.761Z,16.60
2018-04-30T01:18:06.183Z,16.60
2018-04-30T01:20:33.587Z,16.60
2018-04-30T01:23:00.994Z,16.60
2018-04-30T01:25:28.413Z,16.70
2018-04-30T01:27:56.592Z,16.50
2018-04-30T01:30:24.778Z,16.60
2018-04-30T01:32:52.950Z,16.50
2018-04-30T01:35:20.364Z,16.50
2018-04-30T01:37:47.777Z,16.40
2018-04-30T01:40:15.957Z,16.30
2018-04-30T01:42:43.484Z,16.30
2018-04-30T01:45:10.905Z,16.30
2018-04-30T01:47:38.317Z,16.30
2018-04-30T01:50:05.724Z,16.20
2018-04-30T01:52:33.149Z,16.20
2018-04-30T01:55:01.326Z,16.00
2018-04-30T01:57:29.534Z,16.10
2018-04-30T01:59:56.940Z,16.10
2018-04-30T02:02:24.360Z,16.10
2018-04-30T02:04:52.532Z,16.10
2018-04-30T02:07:20.718Z,16.00
2018-04-30T02:09:48.217Z,16.00
2018-04-30T02:12:15.633Z,16.00
2018-04-30T02:14:43.044Z,16.00
2018-04-30T02:17:11.225Z,16.00
2018-04-30T02:19:39.435Z,16.00
2018-04-30T02:22:06.845Z,16.00
2018-04-30T02:24:34.254Z,16.00
2018-04-30T02:27:02.445Z,15.90
2018-04-30T02:29:30.613Z,15.90
2018-04-30T02:31:58.800Z,15.90
2018-04-30T02:34:26.220Z,15.90
2018-04-30T02:36:53.634Z,15.90
2018-04-30T02:39:21.042Z,15.80
2018-04-30T02:41:48.464Z,15.70
2018-04-30T02:44:15.872Z,15.60
2018-04-30T02:46:43.289Z,15.60
2018-04-30T02:49:10.697Z,15.60
2018-04-30T02:51:38.897Z,15.60
2018-04-30T02:54:06.304Z,15.60
2018-04-30T02:56:33.721Z,15.50
2018-04-30T02:59:01.921Z,15.30
2018-04-30T03:01:29.333Z,15.30
2018-04-30T03:03:56.756Z,15.30
2018-04-30T03:06:24.927Z,15.20
2018-04-30T03:08:53.104Z,15.20
2018-04-30T03:11:20.521Z,15.10
2018-04-30T03:13:47.973Z,15.10
2018-04-30T03:16:15.446Z,15.20
2018-04-30T03:18:42.857Z,15.20
2018-04-30T03:21:10.274Z,15.10
2018-04-30T03:23:37.681Z,15.10
2018-04-30T03:26:05.102Z,15.00
2018-04-30T03:28:33.277Z,14.90
2018-04-30T03:31:01.459Z,14.90
2018-04-30T03:33:28.866Z,14.80
2018-04-30T03:35:56.280Z,14.80
2018-04-30T03:38:23.693Z,14.70
2018-04-30T03:40:51.169Z,14.70
2018-04-30T03:43:18.585Z,14.70
2018-04-30T03:45:46.017Z,14.60
2018-04-30T03:48:13.430Z,14.60
2018-04-30T03:50:40.836Z,14.60
2018-04-30T03:53:08.320Z,14.50
2018-04-30T03:55:35.733Z,14.50
2018-04-30T03:58:03.152Z,14.50
2018-04-30T04:00:42.410Z,14.40
2018-04-30T04:03:21.636Z,14.20
2018-04-30T04:06:01.107Z,14.10
2018-04-30T04:08:28.513Z,14.00
2018-04-30T04:10:55.925Z,14.00
2018-04-30T04:13:24.106Z,13.90
2018-04-30T04:15:52.412Z,13.90
2018-04-30T04:18:19.887Z,13.90
2018-04-30T04:20:47.353Z,13.90
2018-04-30T04:23:14.777Z,13.90
2018-04-30T04:25:42.186Z,14.00
2018-04-30T04:28:09.601Z,13.90
2018-04-30T04:30:37.009Z,13.90
2018-04-30T04:33:05.196Z,13.90
2018-04-30T04:35:33.371Z,13.80
2018-04-30T04:38:00.877Z,13.80
2018-04-30T04:40:28.345Z,13.80
2018-04-30T04:42:55.762Z,13.70
2018-04-30T04:45:23.195Z,13.70
2018-04-30T04:47:50.589Z,13.70
2018-04-30T04:50:18.011Z,13.80
2018-04-30T04:52:46.212Z,13.60
2018-04-30T04:55:13.618Z,13.60
2018-04-30T04:57:41.033Z,13.60
2018-04-30T05:00:09.213Z,13.50
2018-04-30T05:02:37.397Z,13.50
2018-04-30T05:05:05.569Z,13.50
2018-04-30T05:07:32.989Z,13.50
2018-04-30T05:10:00.401Z,13.50
2018-04-30T05:12:27.913Z,13.50
2018-04-30T05:14:55.325Z,13.40
2018-04-30T05:17:22.756Z,13.20
2018-04-30T05:19:50.161Z,13.10
2018-04-30T05:22:17.581Z,13.10
2018-04-30T05:24:45.762Z,13.00
2018-04-30T05:27:13.941Z,12.90
2018-04-30T05:29:42.123Z,12.90
2018-04-30T05:32:10.313Z,12.90
2018-04-30T05:34:37.716Z,12.90
2018-04-30T05:37:05.133Z,12.90
2018-04-30T05:39:32.556Z,12.80
2018-04-30T05:42:00.022Z,12.80
2018-04-30T05:44:27.429Z,12.90
2018-04-30T05:46:54.846Z,12.90
2018-04-30T05:49:22.437Z,13.00
2018-04-30T05:51:50.601Z,13.00
2018-04-30T05:54:18.781Z,13.10
2018-04-30T05:56:46.975Z,13.20
2018-04-30T05:59:15.140Z,13.20
2018-04-30T06:01:42.646Z,13.20
2018-04-30T06:04:10.065Z,13.30
2018-04-30T06:06:37.472Z,13.30
2018-04-30T06:09:05.652Z,13.30
2018-04-30T06:11:33.828Z,13.30
2018-04-30T06:14:01.333Z,13.30
2018-04-30T06:16:28.810Z,13.30
2018-04-30T06:18:56.968Z,13.40
2018-04-30T06:21:25.145Z,13.40
2018-04-30T06:23:53.358Z,13.40
2018-04-30T06:26:20.773Z,13.40
2018-04-30T06:28:48.193Z,13.40
2018-04-30T06:31:15.603Z,13.40
2018-04-30T06:33:43.017Z,13.40
2018-04-30T06:36:11.197Z,13.50
2018-04-30T06:38:39.377Z,13.50
2018-04-30T06:41:06.795Z,13.40
2018-04-30T06:43:34.205Z,13.50
2018-04-30T06:46:01.723Z,13.50
2018-04-30T06:48:29.133Z,13.40
2018-04-30T06:50:56.542Z,13.40
2018-04-30T06:53:24.732Z,13.40
2018-04-30T06:55:52.905Z,13.40
2018-04-30T06:58:21.092Z,13.50
2018-04-30T07:00:49.269Z,13.60
2018-04-30T07:03:16.777Z,13.60
2018-04-30T07:05:44.190Z,13.70
2018-04-30T07:08:11.609Z,13.70
2018-04-30T07:10:39.018Z,13.80
2018-04-30T07:13:06.430Z,13.90
2018-04-30T07:15:34.605Z,13.90
2018-04-30T07:18:02.796Z,14.00
2018-04-30T07:20:30.209Z,14.00
2018-04-30T07:22:57.621Z,14.10
2018-04-30T07:25:25.036Z,14.10
2018-04-30T07:27:52.536Z,14.00
2018-04-30T07:30:19.857Z,14.00
2018-04-30T07:32:47.337Z,13.90
2018-04-30T07:35:14.749Z,13.80
2018-04-30T07:37:42.182Z,13.70
2018-04-30T07:40:09.591Z,13.70
2018-04-30T07:42:37.008Z,13.70
2018-04-30T07:45:04.421Z,13.70
2018-04-30T07:47:31.841Z,13.80
2018-04-30T07:50:00.027Z,14.00
2018-04-30T07:52:28.206Z,14.20
2018-04-30T07:54:56.389Z,14.30
2018-04-30T07:57:23.902Z,14.20
2018-04-30T07:59:51.212Z,14.30
2018-04-30T08:02:18.629Z,14.30
2018-04-30T08:04:46.040Z,14.40
2018-04-30T08:07:13.557Z,14.40
2018-04-30T08:09:40.977Z,14.30
2018-04-30T08:12:08.389Z,14.30
2018-04-30T08:14:35.819Z,14.30
2018-04-30T08:17:03.238Z,14.40
2018-04-30T08:19:30.710Z,14.70
2018-04-30T08:21:58.121Z,15.00
2018-04-30T08:24:25.644Z,15.30
2018-04-30T08:26:53.169Z,15.70
2018-04-30T08:29:20.537Z,15.60
2018-04-30T08:31:47.948Z,15.50
2018-04-30T08:34:15.370Z,15.50
2018-04-30T08:36:42.871Z,15.40
2018-04-30T08:39:10.262Z,15.30
2018-04-30T08:41:37.673Z,15.20
2018-04-30T08:44:05.109Z,15.10
2018-04-30T08:46:32.519Z,15.10
2018-04-30T08:48:59.920Z,15.40
2018-04-30T08:51:28.096Z,16.20
2018-04-30T08:53:56.278Z,16.60
2018-04-30T08:56:23.797Z,16.60
2018-04-30T08:58:51.206Z,16.80
2018-04-30T09:01:18.626Z,16.80
2018-04-30T09:03:46.046Z,16.80
2018-04-30T09:06:13.467Z,16.60
2018-04-30T09:08:40.873Z,16.50
2018-04-30T09:11:08.284Z,16.30
2018-04-30T09:13:36.469Z,16.20
2018-04-30T09:16:04.661Z,16.20
2018-04-30T09:18:32.836Z,16.00
2018-04-30T09:21:01.019Z,15.90
2018-04-30T09:23:28.432Z,15.90
2018-04-30T09:25:55.849Z,15.90
2018-04-30T09:28:24.777Z,16.20
2018-04-30T09:30:53.009Z,16.50
2018-04-30T09:33:20.425Z,16.50
2018-04-30T09:35:48.602Z,16.50
2018-04-30T09:38:16.788Z,16.70
2018-04-30T09:40:44.197Z,16.70
2018-04-30T09:43:11.665Z,16.70
2018-04-30T09:45:39.073Z,16.70
2018-04-30T09:48:06.499Z,16.70
2018-04-30T09:50:33.908Z,16.70
2018-04-30T09:53:01.333Z,16.50
2018-04-30T09:55:28.732Z,16.40
2018-04-30T09:57:56.286Z,16.20
2018-04-30T10:00:23.576Z,16.20
2018-04-30T10:02:50.993Z,16.10
2018-04-30T10:05:19.171Z,16.30
2018-04-30T10:07:47.361Z,16.40
2018-04-30T10:10:15.585Z,16.70
2018-04-30T10:12:43.010Z,16.70
2018-04-30T10:15:10.424Z,16.90
2018-04-30T10:17:37.833Z,17.00
2018-04-30T10:20:05.254Z,17.00
2018-04-30T10:22:32.661Z,16.80
2018-04-30T10:25:00.085Z,16.80
2018-04-30T10:27:27.500Z,16.70
2018-04-30T10:29:54.912Z,16.70
2018-04-30T10:32:22.390Z,16.70
2018-04-30T10:34:49.866Z,16.70
2018-04-30T10:37:17.290Z,16.80
2018-04-30T10:39:44.806Z,16.80
2018-04-30T10:42:12.291Z,16.80
2018-04-30T10:44:39.745Z,17.20
2018-04-30T10:47:07.153Z,17.70
2018-04-30T10:49:34.573Z,17.80
2018-04-30T10:52:02.753Z,18.10
2018-04-30T10:54:30.956Z,18.40
2018-04-30T10:56:58.424Z,18.40
2018-04-30T10:59:25.845Z,19.10
2018-04-30T11:01:54.789Z,19.30
2018-04-30T11:04:22.276Z,19.30
2018-04-30T11:06:49.680Z,19.60
2018-04-30T11:09:17.100Z,20.00
2018-04-30T11:11:44.569Z,19.40
2018-04-30T11:14:11.989Z,19.50
2018-04-30T11:16:39.424Z,19.90
2018-04-30T11:19:06.831Z,20.10
2018-04-30T11:21:34.242Z,20.40
2018-04-30T11:24:02.426Z,20.10
2018-04-30T11:26:30.624Z,20.00
2018-04-30T11:28:58.098Z,19.90
2018-04-30T11:31:25.509Z,19.60
2018-04-30T11:33:52.993Z,19.70
2018-04-30T11:36:20.401Z,19.80
2018-04-30T11:38:47.878Z,20.00
2018-04-30T11:41:15.285Z,19.90
2018-04-30T11:43:42.705Z,20.00
2018-04-30T11:46:10.880Z,20.60
2018-04-30T11:48:39.065Z,20.50
2018-04-30T11:51:07.249Z,20.40
2018-04-30T11:53:35.433Z,20.00
2018-04-30T11:56:03.842Z,20.20
2018-04-30T11:58:32.027Z,20.50
2018-04-30T12:01:00.201Z,20.90
2018-04-30T12:03:28.384Z,20.60
2018-04-30T12:05:55.792Z,20.60
2018-04-30T12:08:23.212Z,20.80
2018-04-30T12:10:50.836Z,20.40
2018-04-30T12:13:19.003Z,20.70
2018-04-30T12:15:47.208Z,20.90
2018-04-30T12:18:15.397Z,21.20
2018-04-30T12:20:42.810Z,21.10
2018-04-30T12:23:11.000Z,20.30
2018-04-30T12:25:38.417Z,20.20
2018-04-30T12:28:05.884Z,20.00
2018-04-30T12:30:33.302Z,19.80
2018-04-30T12:33:00.742Z,19.40
2018-04-30T12:35:28.154Z,19.30
2018-04-30T12:37:55.597Z,19.30
2018-04-30T12:40:23.038Z,19.10
2018-04-30T12:42:50.501Z,18.80
2018-04-30T12:45:17.925Z,18.80
2018-04-30T12:47:45.446Z,18.90
2018-04-30T12:50:12.860Z,18.70
2018-04-30T12:52:40.273Z,18.70
2018-04-30T12:55:07.693Z,18.90
2018-04-30T12:57:35.105Z,19.10
2018-04-30T13:00:02.525Z,19.40
2018-04-30T13:02:30.030Z,19.50
2018-04-30T13:04:57.376Z,19.80
2018-04-30T13:07:24.792Z,20.10
2018-04-30T13:09:52.266Z,20.10
2018-04-30T13:12:19.673Z,20.20
2018-04-30T13:14:47.092Z,20.50
2018-04-30T13:17:14.531Z,21.00
2018-04-30T13:19:42.039Z,21.10
2018-04-30T13:22:09.488Z,21.00
2018-04-30T13:24:36.897Z,20.40
2018-04-30T13:27:04.357Z,20.50
2018-04-30T13:29:31.846Z,20.60
2018-04-30T13:31:59.296Z,20.00
2018-04-30T13:34:26.701Z,19.70
2018-04-30T13:36:54.113Z,19.80
2018-04-30T13:39:22.298Z,19.90
2018-04-30T13:41:50.477Z,20.20
2018-04-30T13:44:18.663Z,20.00
2018-04-30T13:46:46.841Z,19.70
2018-04-30T13:49:14.351Z,19.70
2018-04-30T13:51:42.521Z,19.60
2018-04-30T13:54:10.704Z,19.50
2018-04-30T13:56:38.914Z,19.40
2018-04-30T13:59:06.330Z,19.40
2018-04-30T14:01:33.744Z,19.00
2018-04-30T14:04:01.173Z,18.90
2018-04-30T14:06:28.581Z,18.90
2018-04-30T14:08:56.001Z,19.10
2018-04-30T14:11:23.416Z,19.30
2018-04-30T14:13:50.898Z,19.50
2018-04-30T14:16:18.373Z,19.60
2018-04-30T14:18:46.534Z,19.40
2018-04-30T14:21:14.752Z,19.30
2018-04-30T14:23:42.190Z,19.30
2018-04-30T14:26:10.368Z,18.80
2018-04-30T14:28:37.892Z,18.80
2018-04-30T14:31:05.320Z,18.60
2018-04-30T14:33:33.512Z,18.80
2018-04-30T14:36:01.713Z,18.70
2018-04-30T14:38:29.244Z,18.70
2018-04-30T14:40:56.597Z,18.60
2018-04-30T14:43:24.001Z,18.70
2018-04-30T14:45:52.185Z,18.80
2018-04-30T14:48:20.357Z,19.00
2018-04-30T14:50:47.870Z,19.00
2018-04-30T14:53:15.294Z,19.00
2018-04-30T14:55:42.812Z,18.90
2018-04-30T14:58:10.973Z,18.60
2018-04-30T15:00:39.148Z,18.50
2018-04-30T15:03:07.325Z,18.20
2018-04-30T15:05:34.839Z,18.10
2018-04-30T15:08:02.262Z,18.10
2018-04-30T15:10:29.775Z,17.90
2018-04-30T15:12:57.185Z,17.70
2018-04-30T15:15:24.601Z,17.80
2018-04-30T15:17:52.781Z,17.80
2018-04-30T15:20:20.965Z,17.60
2018-04-30T15:22:49.145Z,17.60
2018-04-30T15:25:16.557Z,17.50
2018-04-30T15:27:43.972Z,17.50
2018-04-30T15:30:11.393Z,17.60
2018-04-30T15:32:38.809Z,17.60
2018-04-30T15:35:06.329Z,17.70
2018-04-30T15:37:33.796Z,17.90
2018-04-30T15:40:01.373Z,17.80
2018-04-30T15:42:29.529Z,17.50
2018-04-30T15:44:57.781Z,17.60
2018-04-30T15:47:25.194Z,17.60
2018-04-30T15:49:53.397Z,17.70
2018-04-30T15:52:20.817Z,17.70
2018-04-30T15:54:48.309Z,17.60
2018-04-30T15:57:16.489Z,17.40
2018-04-30T15:59:43.901Z,17.40
2018-04-30T16:02:11.313Z,17.40
2018-04-30T16:04:38.839Z,17.30
2018-04-30T16:07:06.992Z,17.20
2018-04-30T16:09:35.179Z,17.30
2018-04-30T16:12:03.392Z,17.40
2018-04-30T16:14:30.817Z,17.40
2018-04-30T16:16:58.337Z,17.40
2018-04-30T16:19:25.868Z,17.00
2018-04-30T16:21:53.249Z,16.80
2018-04-30T16:24:21.461Z,16.50
2018-04-30T16:26:48.880Z,16.50
2018-04-30T16:29:16.293Z,16.50
2018-04-30T16:31:43.715Z,16.70
2018-04-30T16:34:11.144Z,17.00
2018-04-30T16:36:38.558Z,17.20
2018-04-30T16:39:05.965Z,17.30
2018-04-30T16:41:34.153Z,17.40
2018-04-30T16:44:02.332Z,17.30
2018-04-30T16:46:30.586Z,17.30
2018-04-30T16:48:58.127Z,17.30
2018-04-30T16:51:25.655Z,17.10
2018-04-30T16:53:53.077Z,17.10
2018-04-30T16:56:20.517Z,16.90
2018-04-30T16:58:47.974Z,16.80
2018-04-30T17:01:16.161Z,16.70
2018-04-30T17:03:44.405Z,16.60
2018-04-30T17:06:12.529Z,16.60
2018-04-30T17:08:40.704Z,16.60
2018-04-30T17:11:08.128Z,16.60
2018-04-30T17:13:35.576Z,16.60
2018-04-30T17:16:02.998Z,16.50
2018-04-30T17:18:30.421Z,16.50
2018-04-30T17:20:57.843Z,16.40
2018-04-30T17:23:25.253Z,16.30
2018-04-30T17:25:52.668Z,16.20
2018-04-30T17:28:20.077Z,16.10
2018-04-30T17:30:48.279Z,15.80
2018-04-30T17:33:15.693Z,15.80
2018-04-30T17:35:43.116Z,15.80
2018-04-30T17:38:10.529Z,15.70
2018-04-30T17:40:37.987Z,15.70
2018-04-30T17:43:05.393Z,15.70
2018-04-30T17:45:32.902Z,15.70
2018-04-30T17:48:00.314Z,15.50
2018-04-30T17:50:27.828Z,15.40
2018-04-30T17:52:56.000Z,14.90
2018-04-30T17:55:24.197Z,14.70
2018-04-30T17:57:52.398Z,14.50
2018-04-30T18:00:19.829Z,14.50
2018-04-30T18:02:48.009Z,14.20
2018-04-30T18:05:15.429Z,14.20
2018-04-30T18:07:42.898Z,14.10
2018-04-30T18:10:10.391Z,14.00
2018-04-30T18:12:37.789Z,13.90
2018-04-30T18:15:05.195Z,13.90
2018-04-30T18:17:32.709Z,13.90
2018-04-30T18:20:00.189Z,13.80
2018-04-30T18:22:27.605Z,13.70
2018-04-30T18:24:55.138Z,13.70
2018-04-30T18:27:22.597Z,13.60
2018-04-30T18:29:50.027Z,13.50
2018-04-30T18:32:17.447Z,13.50
2018-04-30T18:34:44.898Z,13.40
2018-04-30T18:37:12.309Z,13.40
2018-04-30T18:39:39.834Z,13.40
2018-04-30T18:42:07.284Z,13.30
2018-04-30T18:44:34.711Z,13.20
2018-04-30T18:47:02.178Z,13.20
2018-04-30T18:49:29.624Z,13.10
2018-04-30T18:51:57.092Z,13.10
2018-04-30T18:54:25.294Z,13.00
2018-04-30T18:56:52.733Z,12.90
2018-04-30T18:59:21.039Z,13.00
2018-04-30T19:01:48.481Z,13.00
2018-04-30T19:04:16.694Z,13.00
2018-04-30T19:06:44.121Z,13.00
2018-04-30T19:09:11.535Z,13.10
2018-04-30T19:11:38.953Z,13.10
2018-04-30T19:14:06.386Z,13.10
2018-04-30T19:16:33.804Z,13.20
2018-04-30T19:19:01.239Z,13.20
2018-04-30T19:21:28.657Z,13.20
2018-04-30T19:23:56.836Z,13.10
2018-04-30T19:26:25.022Z,13.00
2018-04-30T19:28:53.241Z,12.90
2018-04-30T19:31:20.708Z,12.90
2018-04-30T19:33:48.255Z,12.90
2018-04-30T19:36:15.626Z,12.90
2018-04-30T19:38:43.125Z,12.90
2018-04-30T19:41:10.566Z,12.90
2018-04-30T19:43:37.968Z,12.90
2018-04-30T19:46:05.425Z,12.90
2018-04-30T19:48:32.939Z,12.90
2018-04-30T19:51:00.416Z,13.00
2018-04-30T19:53:27.842Z,13.00
2018-04-30T19:55:56.119Z,13.10
2018-04-30T19:58:24.357Z,13.20
2018-04-30T20:00:51.813Z,13.20
2018-04-30T20:03:19.263Z,13.20
2018-04-30T20:05:46.685Z,13.20
2018-04-30T20:08:14.099Z,13.20
2018-04-30T20:10:41.565Z,13.10
2018-04-30T20:13:08.970Z,13.10
2018-04-30T20:15:36.385Z,13.00
2018-04-30T20:18:04.570Z,12.90
2018-04-30T20:20:32.784Z,12.90
2018-04-30T20:23:00.925Z,12.90
2018-04-30T20:25:28.345Z,12.90
2018-04-30T20:27:55.754Z,12.80
2018-04-30T20:30:23.268Z,12.80
2018-04-30T20:32:50.690Z,12.80
2018-04-30T20:35:18.101Z,12.80
2018-04-30T20:37:47.094Z,12.90
2018-04-30T20:40:15.288Z,12.90
2018-04-30T20:42:43.500Z,12.80
2018-04-30T20:45:10.922Z,12.80
2018-04-30T20:47:38.403Z,12.80
2018-04-30T20:50:06.586Z,12.60
2018-04-30T20:52:34.000Z,12.60
2018-04-30T20:55:01.487Z,12.50
2018-04-30T20:57:28.961Z,12.50
2018-04-30T20:59:56.372Z,12.40
2018-04-30T21:02:24.566Z,12.50
2018-04-30T21:04:52.872Z,12.40
2018-04-30T21:07:20.289Z,12.40
2018-04-30T21:09:47.697Z,12.30
2018-04-30T21:12:15.114Z,12.20
2018-04-30T21:14:42.529Z,12.20
2018-04-30T21:17:10.717Z,11.90
2018-04-30T21:19:38.916Z,11.80
2018-04-30T21:22:07.137Z,11.80
2018-04-30T21:24:34.655Z,11.70
2018-04-30T21:27:02.738Z,11.60
2018-04-30T21:29:30.925Z,11.50
2018-04-30T21:31:58.337Z,11.50
2018-04-30T21:34:25.755Z,11.50
2018-04-30T21:36:53.257Z,11.50
2018-04-30T21:39:20.733Z,11.40
2018-04-30T21:41:48.145Z,11.30
2018-04-30T21:44:15.556Z,11.30
2018-04-30T21:46:43.738Z,11.20
2018-04-30T21:49:11.942Z,11.20
2018-04-30T21:51:39.366Z,11.10
2018-04-30T21:54:06.885Z,11.10
2018-04-30T21:56:34.311Z,11.00
2018-04-30T21:59:01.723Z,11.00
2018-04-30T22:01:29.136Z,11.00
2018-04-30T22:03:56.559Z,10.90
2018-04-30T22:06:24.029Z,10.90
2018-04-30T22:08:51.451Z,10.90
2018-04-30T22:11:18.972Z,10.90
2018-04-30T22:13:46.437Z,10.80
2018-04-30T22:16:13.909Z,10.80
2018-04-30T22:18:41.324Z,10.70
2018-04-30T22:21:08.743Z,10.70
2018-04-30T22:23:36.158Z,10.70
2018-04-30T22:26:03.603Z,10.70
2018-04-30T22:28:31.754Z,10.70
2018-04-30T22:30:59.934Z,10.70
2018-04-30T22:33:28.122Z,10.70
2018-04-30T22:35:56.340Z,10.70
2018-04-30T22:38:23.765Z,10.60
2018-04-30T22:40:51.182Z,10.60
2018-04-30T22:43:18.642Z,10.50
2018-04-30T22:45:46.053Z,10.50
2018-04-30T22:48:13.465Z,10.50
2018-04-30T22:50:41.665Z,10.50
2018-04-30T22:53:09.080Z,10.50
2018-04-30T22:55:36.714Z,10.60
2018-04-30T22:58:04.124Z,10.60
2018-04-30T23:00:31.667Z,10.60
2018-04-30T23:02:59.170Z,10.70
2018-04-30T23:05:26.698Z,10.80
2018-04-30T23:07:54.105Z,10.70
2018-04-30T23:10:21.529Z,10.70
2018-04-30T23:12:48.945Z,10.70
2018-04-30T23:15:16.475Z,10.60
2018-04-30T23:17:43.941Z,10.60
2018-04-30T23:20:11.422Z,10.60
2018-04-30T23:22:38.914Z,10.60
2018-04-30T23:25:06.350Z,10.60
2018-04-30T23:27:33.937Z,10.60
2018-04-30T23:30:01.405Z,10.60
2018-04-30T23:32:28.895Z,10.60
2018-04-30T23:34:56.342Z,10.50
2018-04-30T23:37:24.632Z,10.30
2018-04-30T23:39:52.849Z,10.20
2018-04-30T23:42:20.264Z,10.10
2018-04-30T23:44:48.433Z,9.90
2018-04-30T23:47:15.860Z,9.90
2018-04-30T23:49:43.264Z,9.80
2018-04-30T23:52:10.769Z,9.60
2018-04-30T23:54:38.248Z,9.50
2018-04-30T23:57:05.672Z,9.30
2018-04-30T23:59:33.194Z,9.20
